Language: 


Des rapports , des résumés tant et plus, au choix de chacun....


Données statistiques de la station
Quotidien Rapport Mars 14, 2017 Unités:  Métrique    Anglais   les deux
« Précédent Jour
Suivant Jour »
Quotidien Hebdomadaire Mensuel Annuel Actuel
  Haut: Bas: Moyen:
Température: 13.5 °C 0.0 °C 8.2 °C
Pt de rosée: 11.4 °C 1.8 °C 7.3 °C
Humidité: 98 % 0 % 94 %
Vitesse du vent: 27.4 km/h 0.0 km/h 10.5 km/h
Rafales: 27.4 km/h - -
Vent:- - WSW
Pression: 1033.1 hPa 0.0 hPa -
Précipitation: 0.0 mm    
Historical Graphs
 
 
Données statistiques pour Mars 14, 2017
Heure Température Point de rosée Pression Vent Vitesse du vent Refales Humidité Pluie (taux horaire)
00:02 3.1 °C 2.4 °C 1031.0 hPa Calm     95 % 0.0 mm
00:07 3.1 °C 2.6 °C 1031.0 hPa Calm     96 % 0.0 mm
00:12 3.1 °C 2.4 °C 1031.0 hPa Calm     96 % 0.0 mm
00:17 3.1 °C 2.4 °C 1031.0 hPa Calm     96 % 0.0 mm
00:22 3.1 °C 2.4 °C 1031.0 hPa Calm     96 % 0.0 mm
00:27 2.9 °C 2.4 °C 1031.0 hPa Calm     96 % 0.0 mm
00:32 3.1 °C 2.4 °C 1031.0 hPa Calm     96 % 0.0 mm
00:37 3.1 °C 2.4 °C 1031.0 hPa Calm     96 % 0.0 mm
00:42 2.9 °C 2.4 °C 1031.0 hPa Calm     96 % 0.0 mm
00:47 2.8 °C 2.4 °C 1031.0 hPa West 3.2 km/h 3.5 km/h 97 % 0.0 mm
00:52 2.7 °C 2.3 °C 1031.0 hPa Calm   3.5 km/h 97 % 0.0 mm
00:57 2.7 °C 2.1 °C 1031.0 hPa Calm   3.5 km/h 96 % 0.0 mm
01:02 2.6 °C 2.0 °C 1031.0 hPa Calm     96 % 0.0 mm
01:07 2.4 °C 1.9 °C 1031.0 hPa Calm     96 % 0.0 mm
01:12 2.3 °C 1.9 °C 1031.0 hPa Calm     97 % 0.0 mm
01:17 2.3 °C 1.9 °C 1031.0 hPa West 2.6 km/h 3.2 km/h 97 % 0.0 mm
01:22 2.3 °C 1.9 °C 1031.0 hPa Calm   3.2 km/h 97 % 0.0 mm
01:27 2.3 °C 1.9 °C 1031.0 hPa West 2.6 km/h 4.7 km/h 97 % 0.0 mm
01:32 2.3 °C 1.9 °C 1031.0 hPa West 4.0 km/h 5.8 km/h 97 % 0.0 mm
01:37 2.3 °C 1.8 °C 1031.0 hPa WSW 2.1 km/h 5.8 km/h 97 % 0.0 mm
01:42 2.3 °C 1.8 °C 1031.0 hPa West 4.0 km/h 5.0 km/h 97 % 0.0 mm
01:47 2.4 °C 2.2 °C 1031.0 hPa West 4.0 km/h 5.0 km/h 98 % 0.0 mm
01:52 2.6 °C 2.3 °C 1031.0 hPa West 2.1 km/h 6.1 km/h 98 % 0.0 mm
01:57 2.7 °C 2.4 °C 1031.0 hPa West 5.8 km/h 6.1 km/h 98 % 0.0 mm
02:02 2.8 °C 2.6 °C 0.0 hPa West 5.8 km/h 5.8 km/h 98 % 0.0 mm
02:07 3.1 °C 2.8 °C 1031.0 hPa West 5.5 km/h 6.4 km/h 98 % 0.0 mm
02:12 3.1 °C 2.8 °C 1031.0 hPa West 4.7 km/h 6.4 km/h 98 % 0.0 mm
02:17 3.2 °C 2.9 °C 1031.0 hPa West 6.1 km/h 6.9 km/h 98 % 0.0 mm
02:22 3.1 °C 2.8 °C 1030.0 hPa West 4.0 km/h 6.9 km/h 98 % 0.0 mm
02:27 3.2 °C 2.9 °C 1030.0 hPa West 5.0 km/h 6.9 km/h 98 % 0.0 mm
02:32 3.2 °C 2.9 °C 1030.0 hPa West 4.0 km/h 6.9 km/h 98 % 0.0 mm
02:38 3.3 °C 3.1 °C 1031.0 hPa West 6.1 km/h 6.9 km/h 98 % 0.0 mm
02:43 3.3 °C 3.1 °C 1031.0 hPa West 5.5 km/h 6.9 km/h 98 % 0.0 mm
02:48 3.3 °C 3.1 °C 1031.0 hPa SW 5.0 km/h 7.6 km/h 98 % 0.0 mm
02:53 3.2 °C 2.9 °C 1031.0 hPa West 5.0 km/h 7.6 km/h 98 % 0.0 mm
02:58 3.1 °C 2.6 °C 1031.0 hPa West 6.1 km/h 6.4 km/h 97 % 0.0 mm
03:03 3.1 °C 2.8 °C 1031.0 hPa WSW 4.7 km/h 6.4 km/h 98 % 0.0 mm
03:08 3.1 °C 2.8 °C 1031.0 hPa West 6.1 km/h 6.4 km/h 98 % 0.0 mm
03:13 3.1 °C 2.8 °C 1032.1 hPa West 5.8 km/h 6.4 km/h 98 % 0.0 mm
03:18 2.7 °C 2.4 °C 1032.1 hPa West 4.0 km/h 6.4 km/h 98 % 0.0 mm
03:23 2.8 °C 2.6 °C 1032.1 hPa West 5.8 km/h 6.4 km/h 98 % 0.0 mm
03:28 2.9 °C 2.7 °C 1032.1 hPa WSW 5.5 km/h 6.9 km/h 98 % 0.0 mm
03:33 2.9 °C 2.7 °C 1032.1 hPa West 4.3 km/h 6.9 km/h 98 % 0.0 mm
03:38 3.2 °C 2.9 °C 1032.1 hPa WSW 5.0 km/h 6.4 km/h 98 % 0.0 mm
03:43 3.3 °C 3.1 °C 1031.0 hPa West 7.9 km/h 7.9 km/h 98 % 0.0 mm
03:48 3.3 °C 3.1 °C 1031.0 hPa WSW 6.4 km/h 7.9 km/h 98 % 0.0 mm
03:53 3.1 °C 2.8 °C 1031.0 hPa WSW 5.5 km/h 7.9 km/h 98 % 0.0 mm
03:58 2.9 °C 2.7 °C 1031.0 hPa SW 6.1 km/h 7.9 km/h 98 % 0.0 mm
04:03 3.2 °C 2.9 °C 1031.0 hPa WSW 8.7 km/h 8.7 km/h 98 % 0.0 mm
04:08 3.6 °C 3.2 °C 1031.0 hPa West 10.1 km/h 10.1 km/h 98 % 0.0 mm
04:13 3.6 °C 3.3 °C 1031.0 hPa West 6.1 km/h 10.5 km/h 98 % 0.0 mm
04:18 3.7 °C 3.4 °C 1031.0 hPa WSW 5.0 km/h 10.5 km/h 98 % 0.0 mm
04:23 3.6 °C 3.3 °C 1030.0 hPa WSW 5.8 km/h 8.7 km/h 98 % 0.0 mm
04:28 3.2 °C 2.9 °C 1030.0 hPa WSW 5.8 km/h 8.7 km/h 98 % 0.0 mm
04:33 2.9 °C 2.7 °C 1030.0 hPa WSW 6.4 km/h 6.9 km/h 98 % 0.0 mm
04:38 2.9 °C 2.7 °C 1031.0 hPa WSW 6.9 km/h 7.2 km/h 98 % 0.0 mm
04:43 2.9 °C 2.7 °C 1031.0 hPa WSW 9.7 km/h 9.7 km/h 98 % 0.0 mm
04:48 3.2 °C 2.9 °C 1031.0 hPa WSW 6.4 km/h 9.7 km/h 98 % 0.0 mm
04:53 3.6 °C 3.2 °C 1031.0 hPa WSW 7.6 km/h 10.5 km/h 98 % 0.0 mm
04:58 3.7 °C 3.4 °C 1031.0 hPa WSW 10.1 km/h 10.5 km/h 98 % 0.0 mm
05:03 3.9 °C 3.6 °C 1031.0 hPa West 12.6 km/h 12.6 km/h 98 % 0.0 mm
05:08 4.1 °C 3.8 °C 1031.0 hPa WSW 12.6 km/h 14.0 km/h 98 % 0.0 mm
05:13 4.3 °C 4.0 °C 1031.0 hPa WSW 10.1 km/h 16.3 km/h 98 % 0.0 mm
05:18 4.5 °C 4.2 °C 1031.0 hPa WSW 11.9 km/h 16.6 km/h 98 % 0.0 mm
05:23 4.6 °C 4.3 °C 1031.0 hPa WSW 16.9 km/h 17.2 km/h 98 % 0.0 mm
05:28 4.7 °C 4.4 °C 1031.0 hPa WSW 13.7 km/h 17.7 km/h 98 % 0.0 mm
05:33 4.8 °C 4.5 °C 1031.0 hPa WSW 10.5 km/h 17.7 km/h 98 % 0.0 mm
05:38 4.9 °C 4.6 °C 1031.0 hPa WSW 14.3 km/h 19.5 km/h 98 % 0.0 mm
05:43 5.0 °C 4.7 °C 1031.0 hPa WSW 8.7 km/h 19.5 km/h 98 % 0.0 mm
05:48 5.1 °C 4.8 °C 1031.0 hPa WSW 10.1 km/h 13.7 km/h 98 % 0.0 mm
05:53 5.2 °C 4.9 °C 1031.0 hPa WSW 12.6 km/h 16.9 km/h 98 % 0.0 mm
05:58 5.3 °C 5.0 °C 1031.0 hPa West 13.7 km/h 16.9 km/h 98 % 0.0 mm
06:03 5.4 °C 5.1 °C 1031.0 hPa WSW 16.3 km/h 16.3 km/h 98 % 0.0 mm
06:08 5.5 °C 5.2 °C 1030.0 hPa WSW 16.6 km/h 16.9 km/h 98 % 0.0 mm
06:13 5.6 °C 5.3 °C 1030.0 hPa WSW 10.5 km/h 16.9 km/h 98 % 0.0 mm
06:14 5.6 °C 5.3 °C 1030.0 hPa WSW 14.0 km/h 16.6 km/h 98 % 0.0 mm
06:19 5.7 °C 5.4 °C 1030.0 hPa West 13.0 km/h 15.1 km/h 98 % 0.0 mm
06:24 5.8 °C 5.5 °C 1031.0 hPa WSW 15.8 km/h 16.9 km/h 98 % 0.0 mm
06:29 5.9 °C 5.6 °C 1031.0 hPa WSW 10.1 km/h 16.9 km/h 98 % 0.0 mm
06:34 6.0 °C 5.7 °C 1031.0 hPa WSW 8.7 km/h 17.7 km/h 98 % 0.0 mm
06:39 6.0 °C 5.7 °C 1031.0 hPa West 10.5 km/h 17.7 km/h 98 % 0.0 mm
06:44 6.0 °C 5.7 °C 1031.0 hPa West 12.6 km/h 17.2 km/h 98 % 0.0 mm
06:49 6.2 °C 5.9 °C 1031.0 hPa WSW 8.7 km/h 17.2 km/h 98 % 0.0 mm
06:54 6.2 °C 5.9 °C 1031.0 hPa WSW 14.3 km/h 17.7 km/h 98 % 0.0 mm
06:59 6.3 °C 6.0 °C 1031.0 hPa WSW 14.0 km/h 17.7 km/h 98 % 0.0 mm
07:04 6.4 °C 6.1 °C 1031.0 hPa WSW 12.2 km/h 17.7 km/h 98 % 0.0 mm
07:09 6.4 °C 6.1 °C 1031.0 hPa WSW 13.7 km/h 16.6 km/h 98 % 0.0 mm
07:14 6.4 °C 6.2 °C 1031.0 hPa WSW 15.1 km/h 16.6 km/h 98 % 0.0 mm
07:19 6.6 °C 6.3 °C 1031.0 hPa WSW 14.0 km/h 16.6 km/h 98 % 0.0 mm
07:24 6.6 °C 6.3 °C 1031.0 hPa West 17.7 km/h 19.5 km/h 98 % 0.0 mm
07:29 6.7 °C 6.4 °C 1031.0 hPa WSW 17.2 km/h 19.5 km/h 98 % 0.0 mm
07:34 6.8 °C 6.4 °C 1031.0 hPa WSW 13.7 km/h 19.5 km/h 98 % 0.0 mm
07:39 6.8 °C 6.4 °C 1031.0 hPa WSW 10.1 km/h 19.5 km/h 98 % 0.0 mm
07:44 6.8 °C 6.4 °C 1031.0 hPa WSW 14.8 km/h 16.6 km/h 98 % 0.0 mm
07:49 6.8 °C 6.6 °C 1031.0 hPa WSW 13.7 km/h 20.1 km/h 98 % 0.0 mm
07:54 6.8 °C 6.6 °C 1031.0 hPa WSW 16.9 km/h 20.1 km/h 98 % 0.0 mm
07:59 6.8 °C 6.6 °C 1031.0 hPa WSW 16.9 km/h 19.1 km/h 98 % 0.0 mm
08:04 6.8 °C 6.6 °C 1031.0 hPa WSW 10.5 km/h 20.6 km/h 98 % 0.0 mm
08:09 6.8 °C 6.6 °C 1031.0 hPa WSW 12.2 km/h 20.6 km/h 98 % 0.0 mm
08:14 6.9 °C 6.7 °C 1031.0 hPa WSW 15.8 km/h 17.2 km/h 98 % 0.0 mm
08:19 7.1 °C 6.8 °C 1031.0 hPa WSW 12.6 km/h 17.2 km/h 98 % 0.0 mm
08:24 7.2 °C 6.8 °C 1031.0 hPa WSW 12.6 km/h 15.8 km/h 98 % 0.0 mm
08:29 7.3 °C 6.9 °C 1031.0 hPa WSW 9.7 km/h 13.7 km/h 98 % 0.0 mm
08:34 7.3 °C 6.9 °C 1031.0 hPa WSW 9.3 km/h 14.3 km/h 98 % 0.0 mm
08:39 7.3 °C 7.1 °C 1031.0 hPa WSW 9.3 km/h 14.3 km/h 98 % 0.0 mm
08:44 7.3 °C 7.1 °C 1031.0 hPa SW 6.9 km/h 11.1 km/h 98 % 0.0 mm
08:49 7.4 °C 7.2 °C 1031.0 hPa West 9.3 km/h 10.5 km/h 98 % 0.0 mm
08:54 7.4 °C 7.2 °C 1031.0 hPa West 11.9 km/h 12.6 km/h 98 % 0.0 mm
12:17 0.0 °C 10.9 °C 0.0 hPa WSW 15.4 km/h 19.8 km/h 0 % 0.0 mm
12:22 11.8 °C 11.0 °C 1031.0 hPa WSW 20.1 km/h 20.6 km/h 95 % 0.0 mm
12:27 11.8 °C 11.1 °C 1032.1 hPa WSW 13.7 km/h 20.6 km/h 95 % 0.0 mm
12:32 11.7 °C 11.1 °C 1032.1 hPa WSW 15.8 km/h 20.1 km/h 96 % 0.0 mm
12:37 11.7 °C 10.9 °C 1032.1 hPa SSW 12.2 km/h 20.1 km/h 95 % 0.0 mm
12:42 11.4 °C 10.7 °C 1032.1 hPa WSW 16.6 km/h 21.2 km/h 95 % 0.0 mm
12:47 11.4 °C 10.8 °C 1032.1 hPa SW 12.2 km/h 24.8 km/h 96 % 0.0 mm
12:52 11.6 °C 10.9 °C 1032.1 hPa SW 12.2 km/h 24.8 km/h 96 % 0.0 mm
12:57 11.9 °C 11.2 °C 1032.1 hPa SW 19.8 km/h 19.8 km/h 95 % 0.0 mm
13:02 11.9 °C 11.2 °C 1032.1 hPa SW 14.0 km/h 19.8 km/h 95 % 0.0 mm
13:07 11.9 °C 11.2 °C 1031.0 hPa SW 12.6 km/h 17.2 km/h 95 % 0.0 mm
13:12 11.9 °C 11.2 °C 1031.0 hPa West 20.6 km/h 23.0 km/h 95 % 0.0 mm
13:17 12.1 °C 11.1 °C 1031.0 hPa WSW 18.0 km/h 24.8 km/h 94 % 0.0 mm
13:22 12.2 °C 11.1 °C 1031.0 hPa West 27.4 km/h 27.4 km/h 93 % 0.0 mm
13:27 12.2 °C 10.8 °C 1031.0 hPa WSW 22.4 km/h 27.4 km/h 91 % 0.0 mm
13:32 12.2 °C 10.7 °C 1031.0 hPa WSW 12.6 km/h 26.2 km/h 90 % 0.0 mm
13:37 12.4 °C 10.8 °C 1031.0 hPa SSW 16.6 km/h 24.8 km/h 90 % 0.0 mm
13:42 12.7 °C 11.1 °C 1031.0 hPa WSW 15.1 km/h 19.8 km/h 90 % 0.0 mm
13:47 12.8 °C 11.2 °C 1031.0 hPa WSW 15.8 km/h 20.9 km/h 90 % 0.0 mm
13:52 13.1 °C 11.3 °C 1031.0 hPa SW 15.4 km/h 23.8 km/h 89 % 0.0 mm
13:57 13.2 °C 11.3 °C 1031.0 hPa WSW 13.0 km/h 23.8 km/h 88 % 0.0 mm
14:02 13.5 °C 11.4 °C 1031.0 hPa WSW 23.0 km/h 23.0 km/h 87 % 0.0 mm
14:07 13.4 °C 10.9 °C 1031.0 hPa WSW 22.7 km/h 23.0 km/h 85 % 0.0 mm
14:12 13.4 °C 10.9 °C 1031.0 hPa SW 20.1 km/h 22.7 km/h 85 % 0.0 mm
14:17 13.2 °C 10.4 °C 1031.0 hPa West 15.8 km/h 22.7 km/h 83 % 0.0 mm
14:22 13.2 °C 10.6 °C 1031.0 hPa WSW 16.3 km/h 20.6 km/h 84 % 0.0 mm
14:27 13.2 °C 10.6 °C 1031.0 hPa WSW 17.2 km/h 21.2 km/h 84 % 0.0 mm
14:32 13.1 °C 10.3 °C 1031.0 hPa WSW 20.6 km/h 23.3 km/h 83 % 0.0 mm
14:37 13.1 °C 10.4 °C 1031.0 hPa WSW 19.8 km/h 23.3 km/h 84 % 0.0 mm
14:42 13.1 °C 10.4 °C 1031.0 hPa WSW 16.9 km/h 20.6 km/h 84 % 0.0 mm
14:47 12.9 °C 10.1 °C 1031.0 hPa WSW 12.6 km/h 21.2 km/h 83 % 0.0 mm
14:53 12.9 °C 10.3 °C 1030.0 hPa WSW 14.0 km/h 21.2 km/h 84 % 0.0 mm
14:58 12.9 °C 10.3 °C 1030.0 hPa SW 10.1 km/h 18.0 km/h 84 % 0.0 mm
15:03 13.1 °C 10.5 °C 1030.0 hPa SSW 12.2 km/h 18.0 km/h 84 % 0.0 mm
15:08 13.2 °C 10.6 °C 1031.0 hPa WSW 9.3 km/h 16.9 km/h 84 % 0.0 mm
15:13 13.4 °C 10.8 °C 1031.0 hPa SW 16.3 km/h 16.9 km/h 84 % 0.0 mm
15:18 13.4 °C 10.4 °C 1031.0 hPa SW 12.6 km/h 17.7 km/h 82 % 0.0 mm
15:23 13.4 °C 10.4 °C 1031.0 hPa SW 18.3 km/h 22.7 km/h 82 % 0.0 mm
15:28 13.4 °C 10.4 °C 1031.0 hPa SW 12.2 km/h 22.7 km/h 82 % 0.0 mm
15:33 13.4 °C 10.2 °C 1031.0 hPa West 15.1 km/h 23.8 km/h 81 % 0.0 mm
15:38 13.3 °C 10.1 °C 1031.0 hPa West 16.3 km/h 23.8 km/h 81 % 0.0 mm
15:43 13.2 °C 10.2 °C 1031.0 hPa WSW 17.7 km/h 22.4 km/h 82 % 0.0 mm
15:48 13.1 °C 10.1 °C 1031.0 hPa WSW 15.4 km/h 22.4 km/h 82 % 0.0 mm
15:53 12.9 °C 9.9 °C 1031.0 hPa WSW 18.3 km/h 20.9 km/h 82 % 0.0 mm
15:58 12.8 °C 9.8 °C 1031.0 hPa WSW 20.1 km/h 21.6 km/h 82 % 0.0 mm
16:03 12.8 °C 9.8 °C 1031.0 hPa West 13.7 km/h 21.6 km/h 82 % 0.0 mm
16:08 12.4 °C 9.4 °C 1031.0 hPa WSW 19.8 km/h 24.8 km/h 82 % 0.0 mm
16:09 12.3 °C 9.3 °C 1031.0 hPa WSW 20.1 km/h 24.8 km/h 82 % 0.0 mm
16:14 12.2 °C 9.4 °C 1031.0 hPa WSW 20.1 km/h 24.8 km/h 83 % 0.0 mm
16:19 12.1 °C 9.3 °C 1031.0 hPa West 20.1 km/h 22.7 km/h 83 % 0.0 mm
16:24 11.9 °C 9.3 °C 1031.0 hPa WSW 17.2 km/h 22.7 km/h 84 % 0.0 mm
16:29 11.8 °C 9.4 °C 1031.0 hPa WSW 13.7 km/h 23.8 km/h 85 % 0.0 mm
16:34 11.7 °C 9.4 °C 1031.0 hPa WSW 16.9 km/h 23.8 km/h 86 % 0.0 mm
16:39 11.7 °C 9.4 °C 1030.0 hPa WSW 17.7 km/h 20.9 km/h 86 % 0.0 mm
16:44 11.6 °C 9.3 °C 1030.0 hPa WSW 20.6 km/h 21.2 km/h 86 % 0.0 mm
16:49 11.4 °C 9.4 °C 1030.0 hPa WSW 21.2 km/h 23.3 km/h 87 % 0.0 mm
16:54 11.3 °C 9.2 °C 1031.0 hPa WSW 15.8 km/h 23.3 km/h 87 % 0.0 mm
16:59 11.3 °C 9.2 °C 1031.0 hPa West 14.8 km/h 21.2 km/h 87 % 0.0 mm
17:04 11.2 °C 9.3 °C 1031.0 hPa WSW 12.6 km/h 20.6 km/h 88 % 0.0 mm
17:09 11.2 °C 9.3 °C 1031.0 hPa West 12.6 km/h 20.1 km/h 88 % 0.0 mm
17:14 11.1 °C 9.3 °C 1031.0 hPa West 15.8 km/h 20.9 km/h 89 % 0.0 mm
17:19 11.1 °C 9.3 °C 1031.0 hPa West 24.8 km/h 24.8 km/h 89 % 0.0 mm
17:24 11.1 °C 9.5 °C 1031.0 hPa WSW 13.0 km/h 24.8 km/h 90 % 0.0 mm
17:29 11.1 °C 9.5 °C 1031.0 hPa West 18.3 km/h 24.8 km/h 90 % 0.0 mm
17:34 11.0 °C 9.4 °C 1031.0 hPa WNW 12.2 km/h 21.2 km/h 90 % 0.0 mm
17:39 11.0 °C 9.4 °C 1031.0 hPa West 17.2 km/h 21.2 km/h 90 % 0.0 mm
17:44 11.0 °C 9.4 °C 1031.0 hPa West 9.0 km/h 20.6 km/h 90 % 0.0 mm
17:49 10.9 °C 9.4 °C 1031.0 hPa West 16.9 km/h 20.6 km/h 91 % 0.0 mm
17:54 10.9 °C 9.4 °C 1031.0 hPa West 13.0 km/h 19.5 km/h 91 % 0.0 mm
17:59 10.9 °C 9.4 °C 1031.0 hPa West 13.7 km/h 19.5 km/h 91 % 0.0 mm
18:04 10.9 °C 9.4 °C 1031.0 hPa West 16.9 km/h 23.3 km/h 91 % 0.0 mm
18:05 10.8 °C 9.4 °C 1031.0 hPa West 16.3 km/h 23.3 km/h 91 % 0.0 mm
18:10 10.8 °C 9.6 °C 1032.1 hPa West 13.0 km/h 23.3 km/h 92 % 0.0 mm
18:16 10.8 °C 9.6 °C 1032.1 hPa WSW 8.7 km/h 19.5 km/h 92 % 0.0 mm
18:21 10.8 °C 9.6 °C 1032.1 hPa WSW 11.6 km/h 19.5 km/h 92 % 0.0 mm
18:26 10.7 °C 9.4 °C 1031.0 hPa WSW 12.2 km/h 16.3 km/h 92 % 0.0 mm
18:31 10.7 °C 9.4 °C 1031.0 hPa WSW 10.1 km/h 16.3 km/h 92 % 0.0 mm
18:36 10.7 °C 9.4 °C 1031.0 hPa WSW 12.2 km/h 16.3 km/h 92 % 0.0 mm
18:41 10.7 °C 9.4 °C 1031.0 hPa West 14.0 km/h 17.2 km/h 92 % 0.0 mm
18:46 10.6 °C 9.5 °C 1031.0 hPa West 10.5 km/h 17.2 km/h 93 % 0.0 mm
18:51 10.6 °C 9.5 °C 1031.0 hPa West 12.2 km/h 16.6 km/h 93 % 0.0 mm
18:56 10.6 °C 9.5 °C 1032.1 hPa West 10.5 km/h 16.6 km/h 93 % 0.0 mm
19:01 10.5 °C 9.4 °C 1032.1 hPa West 12.2 km/h 14.0 km/h 93 % 0.0 mm
19:06 10.5 °C 9.4 °C 1032.1 hPa WSW 8.7 km/h 14.0 km/h 93 % 0.0 mm
19:11 10.5 °C 9.4 °C 1032.1 hPa WSW 4.3 km/h 12.6 km/h 93 % 0.0 mm
19:16 10.5 °C 9.4 °C 1032.1 hPa WSW 4.7 km/h 9.3 km/h 93 % 0.0 mm
19:21 10.4 °C 9.3 °C 1032.1 hPa WSW 4.7 km/h 8.7 km/h 93 % 0.0 mm
19:26 10.4 °C 9.3 °C 1032.1 hPa WSW 7.9 km/h 10.5 km/h 93 % 0.0 mm
19:31 10.3 °C 9.2 °C 1032.1 hPa SW 7.2 km/h 10.5 km/h 93 % 0.0 mm
19:36 10.3 °C 9.2 °C 1032.1 hPa West 9.0 km/h 10.5 km/h 93 % 0.0 mm
19:41 10.3 °C 9.2 °C 1032.1 hPa WSW 5.5 km/h 10.8 km/h 93 % 0.0 mm
19:46 10.3 °C 9.2 °C 1032.1 hPa WSW 9.3 km/h 12.2 km/h 93 % 0.0 mm
19:51 10.3 °C 9.2 °C 1032.1 hPa WSW 6.9 km/h 12.2 km/h 93 % 0.0 mm
19:56 10.3 °C 9.2 °C 1032.1 hPa West 8.7 km/h 10.5 km/h 93 % 0.0 mm
20:01 10.2 °C 9.1 °C 1032.1 hPa WSW 7.6 km/h 9.7 km/h 93 % 0.0 mm
20:06 10.2 °C 9.1 °C 1032.1 hPa West 6.9 km/h 10.5 km/h 93 % 0.0 mm
20:11 10.2 °C 9.1 °C 1032.1 hPa Calm   10.5 km/h 93 % 0.0 mm
20:16 10.2 °C 9.1 °C 1032.1 hPa WSW 6.9 km/h 6.9 km/h 93 % 0.0 mm
20:21 10.2 °C 9.1 °C 1032.1 hPa Calm   6.9 km/h 93 % 0.0 mm
20:26 10.1 °C 9.2 °C 1032.1 hPa WSW 9.7 km/h 9.7 km/h 94 % 0.0 mm
20:31 10.2 °C 9.3 °C 1032.1 hPa Calm   9.7 km/h 94 % 0.0 mm
20:36 10.1 °C 9.2 °C 1032.1 hPa WSW 6.9 km/h 9.3 km/h 94 % 0.0 mm
20:41 10.1 °C 9.2 °C 1033.1 hPa West 7.9 km/h 9.3 km/h 94 % 0.0 mm
20:46 10.1 °C 9.2 °C 1033.1 hPa Calm   9.3 km/h 94 % 0.0 mm
20:51 10.1 °C 9.2 °C 1033.1 hPa West 5.5 km/h 7.9 km/h 94 % 0.0 mm
20:56 10.1 °C 9.2 °C 1033.1 hPa WSW 7.9 km/h 7.9 km/h 94 % 0.0 mm
21:01 10.0 °C 9.1 °C 1033.1 hPa Calm   7.9 km/h 94 % 0.0 mm
21:06 10.0 °C 9.1 °C 1033.1 hPa WSW 6.4 km/h 9.0 km/h 94 % 0.0 mm
21:11 10.0 °C 9.1 °C 1033.1 hPa WSW 5.5 km/h 9.0 km/h 94 % 0.0 mm
21:16 10.0 °C 9.1 °C 1033.1 hPa WSW 5.5 km/h 8.7 km/h 94 % 0.0 mm
21:21 10.0 °C 9.1 °C 1033.1 hPa WSW 8.7 km/h 10.1 km/h 94 % 0.0 mm
21:26 10.0 °C 9.1 °C 1033.1 hPa WSW 11.6 km/h 11.6 km/h 94 % 0.0 mm
21:31 10.0 °C 9.2 °C 1033.1 hPa WSW 9.0 km/h 12.6 km/h 95 % 0.0 mm
21:36 10.0 °C 9.2 °C 1033.1 hPa West 9.7 km/h 12.6 km/h 95 % 0.0 mm
21:41 10.0 °C 9.2 °C 1033.1 hPa WSW 7.9 km/h 11.6 km/h 95 % 0.0 mm
21:46 10.0 °C 9.2 °C 1033.1 hPa WSW 9.7 km/h 11.9 km/h 95 % 0.0 mm
21:51 10.0 °C 9.2 °C 1033.1 hPa WSW 9.0 km/h 14.3 km/h 95 % 0.0 mm
21:57 10.1 °C 9.3 °C 1033.1 hPa WSW 14.0 km/h 14.3 km/h 95 % 0.0 mm
22:02 10.1 °C 9.3 °C 1033.1 hPa West 10.1 km/h 14.0 km/h 95 % 0.0 mm
22:07 10.1 °C 9.3 °C 1033.1 hPa West 10.1 km/h 15.4 km/h 95 % 0.0 mm
22:12 10.1 °C 9.3 °C 1033.1 hPa WSW 10.5 km/h 15.4 km/h 95 % 0.0 mm
22:17 10.1 °C 9.3 °C 1033.1 hPa WSW 12.6 km/h 15.4 km/h 95 % 0.0 mm
22:22 10.1 °C 9.3 °C 1033.1 hPa WSW 8.7 km/h 14.3 km/h 95 % 0.0 mm
22:27 10.1 °C 9.5 °C 1033.1 hPa West 14.0 km/h 14.3 km/h 96 % 0.0 mm
22:32 10.1 °C 9.5 °C 1033.1 hPa WSW 10.5 km/h 14.0 km/h 96 % 0.0 mm
22:37 10.1 °C 9.5 °C 1033.1 hPa West 9.0 km/h 14.0 km/h 96 % 0.0 mm
22:42 10.1 °C 9.5 °C 1033.1 hPa WSW 9.7 km/h 14.0 km/h 96 % 0.0 mm
22:47 10.1 °C 9.5 °C 1033.1 hPa West 9.3 km/h 12.2 km/h 96 % 0.0 mm
22:52 10.1 °C 9.5 °C 1033.1 hPa West 12.2 km/h 12.2 km/h 96 % 0.0 mm
22:57 10.1 °C 9.5 °C 1033.1 hPa West 11.9 km/h 13.7 km/h 96 % 0.0 mm
23:02 10.0 °C 9.4 °C 1033.1 hPa WSW 9.0 km/h 14.0 km/h 96 % 0.0 mm
23:07 10.0 °C 9.4 °C 1033.1 hPa WSW 7.9 km/h 14.0 km/h 96 % 0.0 mm
23:12 10.0 °C 9.4 °C 1033.1 hPa West 7.9 km/h 10.5 km/h 96 % 0.0 mm
23:17 10.0 °C 9.4 °C 1033.1 hPa WSW 10.1 km/h 13.0 km/h 96 % 0.0 mm
23:22 10.1 °C 9.5 °C 1033.1 hPa WSW 11.6 km/h 13.0 km/h 96 % 0.0 mm
23:27 10.1 °C 9.5 °C 1032.1 hPa WSW 8.7 km/h 12.6 km/h 96 % 0.0 mm
23:32 10.1 °C 9.5 °C 1032.1 hPa WSW 9.3 km/h 12.6 km/h 96 % 0.0 mm
23:37 10.1 °C 9.5 °C 1032.1 hPa West 8.7 km/h 12.6 km/h 96 % 0.0 mm
23:42 10.1 °C 9.5 °C 1032.1 hPa WSW 12.2 km/h 14.8 km/h 96 % 0.0 mm
23:47 10.1 °C 9.5 °C 1032.1 hPa WSW 9.0 km/h 14.8 km/h 96 % 0.0 mm
23:52 10.0 °C 9.4 °C 1032.1 hPa WSW 6.9 km/h 12.2 km/h 96 % 0.0 mm
23:57 10.0 °C 9.4 °C 1032.1 hPa SW 5.8 km/h 11.9 km/h 96 % 0.0 mm
Le Gheer Warneton
Courtoisie de Weather Underground - 2.25 mb

Mise a jour : 16-12-17 15:31:12
Généré par Cumulus 1.9.4 (1099)